Time;durP1;ratioP1;P1;durP2;ratioP2;P2;SDS_P1;SDS_P2;PMS_P1;PMS_P2;Temp;Humidity;BMP_temperature;BMP_pressure;BME280_temperature;BME280_humidity;BME280_pressure;Samples;Min_cycle;Max_cycle;Signal;HPM_P1;HPM_P2
2021/01/18 00:02:16;;;;;;;28.10;5.43;;;4.60;98.10;;;;;;5044888;28;20033;-93
2021/01/18 00:04:43;;;;;;;26.15;4.63;;;4.50;98.20;;;;;;5039677;28;20025;-92
2021/01/18 00:07:08;;;;;;;23.63;4.80;;;4.40;98.00;;;;;;5051904;28;20057;-92
2021/01/18 00:09:34;;;;;;;51.15;12.25;;;4.40;98.80;;;;;;5040597;28;20060;-94
2021/01/18 00:12:00;;;;;;;37.72;5.05;;;4.50;99.20;;;;;;5048998;28;20362;-92
2021/01/18 00:14:25;;;;;;;27.48;3.65;;;4.50;98.70;;;;;;5048454;28;20060;-93
2021/01/18 00:16:51;;;;;;;15.38;3.78;;;4.50;98.40;;;;;;5050773;28;20124;-93
2021/01/18 00:19:17;;;;;;;26.77;6.88;;;4.40;97.90;;;;;;5041723;28;20040;-94
2021/01/18 00:21:46;;;;;;;23.98;7.60;;;4.30;98.10;;;;;;5049654;28;20381;-92
2021/01/18 00:24:13;;;;;;;42.35;8.35;;;4.30;98.10;;;;;;5041300;28;20049;-91
2021/01/18 00:26:39;;;;;;;29.05;7.00;;;4.40;98.70;;;;;;5044857;28;20021;-92
2021/01/18 00:29:05;;;;;;;35.25;10.02;;;4.50;98.50;;;;;;5049823;28;20024;-93
2021/01/18 00:31:31;;;;;;;;;;;4.50;98.50;;;;;;5051163;28;20060;-92
2021/01/18 00:33:56;;;;;;;40.75;14.13;;;4.60;98.20;;;;;;5046891;28;20102;-92
2021/01/18 00:36:22;;;;;;;40.17;12.05;;;4.60;98.10;;;;;;5046301;28;20029;-91
2021/01/18 00:38:47;;;;;;;18.73;6.95;;;4.50;97.80;;;;;;5043671;28;20087;-91
2021/01/18 00:41:13;;;;;;;29.48;6.38;;;4.50;97.60;;;;;;5039755;28;20030;-92
2021/01/18 00:43:39;;;;;;;31.20;6.93;;;4.40;97.70;;;;;;5045994;28;20074;-92
2021/01/18 00:46:04;;;;;;;29.30;6.88;;;4.30;97.70;;;;;;5045609;28;20092;-92
2021/01/18 00:48:30;;;;;;;23.35;4.50;;;4.30;98.00;;;;;;5050695;28;20102;-93
2021/01/18 00:50:55;;;;;;;21.95;4.93;;;4.30;98.30;;;;;;5051076;28;20365;-94
2021/01/18 00:53:21;;;;;;;22.20;4.90;;;4.40;98.10;;;;;;5055270;28;20055;-93
2021/01/18 00:55:47;;;;;;;19.35;3.58;;;4.40;98.00;;;;;;5044468;28;20096;-94
2021/01/18 00:58:13;;;;;;;25.35;4.18;;;4.40;97.80;;;;;;5047145;28;20313;-93
2021/01/18 01:00:39;;;;;;;27.67;5.65;;;4.40;97.80;;;;;;5049612;28;20362;-93
2021/01/18 01:03:06;;;;;;;25.48;5.10;;;4.40;97.50;;;;;;5053076;28;20881;-92
2021/01/18 01:05:31;;;;;;;39.78;6.30;;;4.30;97.40;;;;;;5055699;28;20095;-92
2021/01/18 01:07:58;;;;;;;27.25;6.30;;;4.20;98.00;;;;;;5040531;28;20036;-93
2021/01/18 01:10:33;;;;;;;21.98;5.05;;;4.20;98.00;;;;;;5053721;28;20002;-94
2021/01/18 01:13:07;;;;;;;22.17;5.00;;;4.20;98.00;;;;;;5068302;28;20021;-93
2021/01/18 01:15:34;;;;;;;35.30;6.07;;;4.30;98.20;;;;;;5046548;28;20040;-92
2021/01/18 01:18:00;;;;;;;24.52;5.30;;;4.40;97.70;;;;;;5049152;28;20382;-93
2021/01/18 01:20:26;;;;;;;17.35;4.20;;;4.50;97.70;;;;;;5046988;28;20024;-92
2021/01/18 01:22:53;;;;;;;22.13;4.68;;;4.60;97.80;;;;;;5051530;28;20106;-94
2021/01/18 01:25:21;;;;;;;24.10;5.75;;;4.70;97.90;;;;;;5041236;28;20029;-93
2021/01/18 01:27:47;;;;;;;24.60;6.40;;;4.70;97.60;;;;;;5037012;28;20052;-92
2021/01/18 01:30:22;;;;;;;27.48;7.25;;;4.60;97.40;;;;;;5042371;28;20467;-92
2021/01/18 01:32:49;;;;;;;24.15;7.10;;;4.50;97.40;;;;;;5051799;28;20033;-95
2021/01/18 01:35:17;;;;;;;24.70;5.65;;;4.40;97.50;;;;;;5060512;28;20002;-92
2021/01/18 01:37:43;;;;;;;28.25;8.15;;;4.30;97.70;;;;;;5060621;28;20040;-93
2021/01/18 01:40:11;;;;;;;23.60;6.95;;;4.20;97.80;;;;;;5047997;28;20021;-94
2021/01/18 01:42:37;;;;;;;29.15;6.70;;;4.10;97.80;;;;;;5049803;28;20076;-94
2021/01/18 01:45:06;;;;;;;24.15;5.72;;;4.10;97.90;;;;;;5038731;28;20029;-94
2021/01/18 01:47:42;;;;;;;31.13;6.20;;;4.10;98.40;;;;;;5039003;28;20020;-94
2021/01/18 01:50:11;;;;;;;35.17;8.73;;;4.20;98.70;;;;;;5042156;28;20024;-94
2021/01/18 01:52:44;;;;;;;30.27;6.53;;;4.30;98.90;;;;;;5049792;28;20025;-93
2021/01/18 01:55:22;;;;;;;24.08;5.70;;;4.50;98.90;;;;;;5044857;28;20024;-93
2021/01/18 01:57:47;;;;;;;26.73;7.38;;;4.60;98.60;;;;;;5045845;28;20063;-94
2021/01/18 02:00:15;;;;;;;19.77;4.47;;;4.80;98.30;;;;;;5041245;28;20025;-93
2021/01/18 02:02:41;;;;;;;25.38;6.65;;;4.80;98.10;;;;;;5057095;28;20025;-93
2021/01/18 02:05:13;;;;;;;29.55;7.30;;;4.90;97.70;;;;;;5069407;28;20025;-94
2021/01/18 02:07:39;;;;;;;17.50;4.03;;;5.00;97.70;;;;;;5050889;28;20029;-93
2021/01/18 02:10:05;;;;;;;22.52;4.22;;;5.10;97.10;;;;;;5076911;28;20080;-94
2021/01/18 02:12:31;;;;;;;17.02;3.92;;;5.00;97.10;;;;;;5070284;28;20009;-91
2021/01/18 02:15:26;;;;;;;23.70;3.03;;;5.00;97.20;;;;;;5061098;28;20025;-91
2021/01/18 02:17:58;;;;;;;12.85;2.80;;;5.00;97.20;;;;;;5051905;28;20172;-93
2021/01/18 02:20:42;;;;;;;21.00;4.05;;;4.80;97.40;;;;;;5068238;28;20005;-93
2021/01/18 02:23:33;;;;;;;14.73;3.70;;;4.80;97.40;;;;;;5072606;28;20053;-91
2021/01/18 02:26:08;;;;;;;16.33;3.47;;;4.60;97.40;;;;;;5035664;28;20052;-94
2021/01/18 02:29:01;;;;;;;26.35;4.03;;;4.60;97.90;;;;;;5046341;28;20116;-94
2021/01/18 02:31:55;;;;;;;28.27;5.18;;;4.50;97.80;;;;;;5051658;28;20013;-94
2021/01/18 02:35:08;;;;;;;28.60;6.38;;;4.40;98.20;;;;;;5053514;28;20036;-93
2021/01/18 02:38:08;;;;;;;26.58;7.40;;;4.30;98.60;;;;;;5006593;28;20077;-93
2021/01/18 02:40:47;;;;;;;26.70;5.53;;;4.40;98.80;;;;;;5010306;28;20510;-94
2021/01/18 02:43:17;;;;;;;22.15;4.95;;;4.40;98.60;;;;;;5026178;28;20033;-92
2021/01/18 02:45:45;;;;;;;22.63;4.30;;;4.40;98.50;;;;;;5041387;28;20082;-91
2021/01/18 02:48:13;;;;;;;16.30;3.88;;;4.40;98.30;;;;;;5046531;28;20029;-93
2021/01/18 02:50:40;;;;;;;14.95;2.95;;;4.50;98.50;;;;;;5040189;28;20498;-93
2021/01/18 02:53:06;;;;;;;15.68;2.33;;;4.60;98.20;;;;;;5044475;28;20030;-94
2021/01/18 02:55:32;;;;;;;9.27;2.00;;;4.70;97.90;;;;;;5039437;28;20028;-93
2021/01/18 02:58:02;;;;;;;19.23;2.38;;;4.80;97.70;;;;;;5046208;28;20041;-93
2021/01/18 03:00:41;;;;;;;17.92;2.97;;;4.90;97.30;;;;;;5052018;28;20069;-93
2021/01/18 03:03:07;;;;;;;12.45;1.83;;;4.90;97.10;;;;;;5057450;28;20549;-94
2021/01/18 03:06:06;;;;;;;15.30;2.45;;;4.90;97.20;;;;;;5048128;28;20093;-93
2021/01/18 03:08:39;;;;;;;27.48;2.70;;;4.90;97.10;;;;;;5036306;28;20025;-92
2021/01/18 03:11:09;;;;;;;12.07;1.92;;;4.90;97.10;;;;;;5036980;28;20037;-93
2021/01/18 03:13:55;;;;;;;16.92;2.95;;;4.90;96.90;;;;;;5050004;28;20025;-95
2021/01/18 03:16:24;;;;;;;11.48;2.50;;;4.90;97.00;;;;;;5038942;28;20068;-92
2021/01/18 03:18:52;;;;;;;23.90;2.40;;;4.90;97.10;;;;;;5047291;28;20044;-92
2021/01/18 03:21:19;;;;;;;10.10;2.13;;;4.90;97.10;;;;;;5048693;28;20479;-93
2021/01/18 03:23:45;;;;;;;8.45;2.33;;;4.80;97.10;;;;;;5035567;28;20084;-93
2021/01/18 03:26:12;;;;;;;9.05;2.15;;;4.80;97.10;;;;;;5048682;28;20037;-93
2021/01/18 03:28:38;;;;;;;14.93;2.53;;;4.80;97.10;;;;;;5049125;28;20021;-92
2021/01/18 03:31:04;;;;;;;;;;;4.80;97.00;;;;;;5056348;28;20028;-91
2021/01/18 03:33:30;;;;;;;13.40;1.98;;;4.70;97.00;;;;;;5068509;28;19905;-91
2021/01/18 03:35:56;;;;;;;8.68;2.45;;;4.70;97.00;;;;;;5070099;28;20033;-92
2021/01/18 03:38:23;;;;;;;9.00;2.10;;;4.60;97.10;;;;;;5043978;28;20044;-92
2021/01/18 03:40:52;;;;;;;15.98;3.05;;;4.50;97.20;;;;;;5052817;28;20032;-91
2021/01/18 03:43:20;;;;;;;12.57;2.08;;;4.40;97.20;;;;;;5053479;28;20021;-93
2021/01/18 03:45:46;;;;;;;9.55;1.95;;;4.50;97.60;;;;;;5041015;28;20537;-94
2021/01/18 03:48:13;;;;;;;8.82;1.88;;;4.60;97.60;;;;;;5040422;28;20482;-92
2021/01/18 03:50:39;;;;;;;7.60;1.70;;;4.70;97.30;;;;;;5049445;28;20064;-93
2021/01/18 03:53:05;;;;;;;12.30;1.90;;;4.90;96.90;;;;;;5054039;28;20021;-93
2021/01/18 03:55:31;;;;;;;;;;;5.10;96.80;;;;;;5054968;28;20013;-94
2021/01/18 03:57:57;;;;;;;16.92;2.35;;;5.20;96.90;;;;;;5049979;28;20376;-95
2021/01/18 04:00:24;;;;;;;;;;;5.20;97.00;;;;;;5040873;28;20026;-94
2021/01/18 04:02:51;;;;;;;11.32;2.50;;;5.20;96.90;;;;;;5047250;28;19909;-92
2021/01/18 04:05:18;;;;;;;7.45;1.90;;;5.30;96.80;;;;;;5038887;28;20025;-93
2021/01/18 04:07:45;;;;;;;9.02;1.65;;;5.20;97.10;;;;;;5041859;28;20025;-93
2021/01/18 04:10:12;;;;;;;16.88;2.35;;;5.20;96.90;;;;;;5049955;28;20025;-92
2021/01/18 04:12:39;;;;;;;11.65;1.85;;;5.30;96.80;;;;;;5056985;28;20022;-91
2021/01/18 04:15:06;;;;;;;10.43;1.83;;;5.30;96.90;;;;;;5067722;28;20039;-93
2021/01/18 04:17:32;;;;;;;10.38;2.17;;;5.30;96.90;;;;;;5075377;28;20063;-91
2021/01/18 04:19:57;;;;;;;9.68;2.17;;;5.30;96.90;;;;;;5072217;28;20025;-91
2021/01/18 04:22:23;;;;;;;11.82;2.03;;;5.30;96.90;;;;;;5073005;28;20061;-91
2021/01/18 04:24:48;;;;;;;12.77;2.65;;;5.30;97.10;;;;;;5058082;28;20029;-92
2021/01/18 04:27:14;;;;;;;13.07;2.03;;;5.20;97.20;;;;;;5055712;28;20158;-92
2021/01/18 04:29:40;;;;;;;13.32;2.17;;;5.20;97.20;;;;;;5044070;28;20478;-93
2021/01/18 04:32:05;;;;;;;5.78;2.00;;;5.30;97.10;;;;;;5053747;28;20025;-91
2021/01/18 04:34:31;;;;;;;7.05;1.85;;;5.30;97.00;;;;;;5043942;28;20013;-92
2021/01/18 04:37:00;;;;;;;15.00;2.60;;;5.40;96.90;;;;;;5050588;28;20601;-93
2021/01/18 04:39:26;;;;;;;6.75;1.63;;;5.40;96.80;;;;;;5046684;28;20032;-93
2021/01/18 04:41:51;;;;;;;5.95;1.88;;;5.50;96.80;;;;;;5042597;28;20029;-93
2021/01/18 04:44:17;;;;;;;4.95;1.60;;;5.40;96.70;;;;;;5048923;28;20104;-92
2021/01/18 04:46:45;;;;;;;6.85;1.55;;;5.40;96.80;;;;;;5048512;28;20024;-93
2021/01/18 04:49:12;;;;;;;8.35;2.25;;;5.50;96.80;;;;;;5065530;28;20013;-92
2021/01/18 04:51:41;;;;;;;8.38;2.85;;;5.50;96.90;;;;;;5053687;28;20470;-92
2021/01/18 04:54:11;;;;;;;8.13;2.13;;;5.40;97.00;;;;;;5051799;28;20111;-92
2021/01/18 04:56:52;;;;;;;11.20;2.05;;;5.40;97.40;;;;;;5046170;28;20021;-92
2021/01/18 04:59:21;;;;;;;13.82;2.15;;;5.40;97.00;;;;;;5044084;28;20029;-92
2021/01/18 05:01:51;;;;;;;7.47;1.80;;;5.40;97.10;;;;;;5040671;28;20033;-93
2021/01/18 05:04:29;;;;;;;7.15;1.55;;;5.40;96.90;;;;;;5045949;28;20032;-93
2021/01/18 05:06:59;;;;;;;8.93;1.90;;;5.40;96.90;;;;;;5042891;28;20087;-94
2021/01/18 05:09:29;;;;;;;11.52;1.73;;;5.50;96.90;;;;;;5044580;28;20509;-93
2021/01/18 05:11:58;;;;;;;7.72;2.03;;;5.50;97.20;;;;;;5039792;28;20040;-94
2021/01/18 05:14:23;;;;;;;8.52;1.80;;;5.50;97.50;;;;;;5046511;28;20029;-93
2021/01/18 05:16:58;;;;;;;9.30;2.00;;;5.50;97.80;;;;;;5035534;28;20112;-92
2021/01/18 05:19:26;;;;;;;3.97;1.73;;;5.50;97.90;;;;;;5036897;28;20092;-93
2021/01/18 05:21:52;;;;;;;5.28;1.55;;;5.50;98.00;;;;;;5048110;28;20009;-94
2021/01/18 05:24:19;;;;;;;5.75;1.67;;;5.40;97.80;;;;;;5046357;28;20021;-94
2021/01/18 05:27:01;;;;;;;8.55;1.60;;;5.30;97.90;;;;;;5052775;28;20029;-93
2021/01/18 05:29:32;;;;;;;9.57;1.83;;;5.20;98.10;;;;;;5056008;28;20021;-94
2021/01/18 05:31:58;;;;;;;8.90;1.42;;;5.20;98.00;;;;;;5053167;28;20055;-94
2021/01/18 05:34:27;;;;;;;4.88;1.58;;;5.20;98.00;;;;;;5061406;28;20017;-93
2021/01/18 05:36:53;;;;;;;8.27;1.58;;;5.20;97.90;;;;;;5051526;28;20043;-92
2021/01/18 05:39:23;;;;;;;11.75;4.32;;;5.20;97.80;;;;;;5049961;28;20412;-96
2021/01/18 05:41:54;;;;;;;6.03;1.50;;;5.10;97.80;;;;;;5047359;28;20026;-94
2021/01/18 05:44:29;;;;;;;7.95;1.67;;;5.20;97.90;;;;;;5034759;28;20033;-94
2021/01/18 05:47:11;;;;;;;9.93;1.98;;;5.20;97.60;;;;;;5033391;28;20061;-93
2021/01/18 05:49:48;;;;;;;7.90;1.88;;;5.20;97.70;;;;;;5034966;28;20417;-93
2021/01/18 05:52:23;;;;;;;8.32;1.42;;;5.20;97.70;;;;;;5049090;28;20032;-91
2021/01/18 05:54:49;;;;;;;2.83;1.85;;;5.20;97.80;;;;;;5036953;28;20022;-93
2021/01/18 05:57:15;;;;;;;4.40;1.50;;;5.20;98.00;;;;;;5042207;28;20027;-92
2021/01/18 05:59:42;;;;;;;6.07;2.20;;;5.30;97.90;;;;;;5052203;28;20494;-91
2021/01/18 06:02:09;;;;;;;7.03;1.83;;;5.20;98.00;;;;;;5046403;28;20158;-92
2021/01/18 06:04:35;;;;;;;7.35;2.20;;;5.20;98.20;;;;;;5051044;28;20378;-92
2021/01/18 06:07:03;;;;;;;10.52;2.50;;;5.20;98.50;;;;;;5039226;28;20040;-92
2021/01/18 06:09:55;;;;;;;5.60;1.63;;;5.10;98.50;;;;;;5051854;28;20050;-92
2021/01/18 06:12:25;;;;;;;9.32;1.98;;;5.10;98.50;;;;;;5060317;28;20135;-94
2021/01/18 06:15:13;;;;;;;9.45;2.20;;;5.10;98.40;;;;;;5038953;28;20056;-94
2021/01/18 06:17:47;;;;;;;3.95;1.63;;;5.10;98.80;;;;;;5044338;28;20505;-95
2021/01/18 06:20:27;;;;;;;7.13;1.60;;;5.10;98.70;;;;;;5048780;28;20030;-93
2021/01/18 06:22:54;;;;;;;7.90;1.50;;;5.20;98.70;;;;;;5048045;28;20039;-92
2021/01/18 06:25:41;;;;;;;3.63;1.20;;;5.20;98.50;;;;;;5056822;28;20029;-94
2021/01/18 06:28:24;;;;;;;6.30;1.52;;;5.30;98.30;;;;;;5067558;28;20018;-93
2021/01/18 06:31:02;;;;;;;8.13;1.77;;;5.40;98.10;;;;;;5072611;28;20550;-92
2021/01/18 06:33:39;;;;;;;9.43;1.52;;;5.40;98.00;;;;;;5043807;28;20030;-92
2021/01/18 06:36:15;;;;;;;10.27;1.70;;;5.40;98.00;;;;;;5053766;28;20091;-91
2021/01/18 06:38:57;;;;;;;10.15;1.95;;;5.40;97.80;;;;;;5062498;28;20043;-92
2021/01/18 06:41:28;;;;;;;8.25;1.67;;;5.40;97.80;;;;;;5057009;28;20072;-92
2021/01/18 06:43:54;;;;;;;4.95;1.52;;;5.50;97.60;;;;;;5075515;28;20021;-93
2021/01/18 06:46:29;;;;;;;4.45;1.88;;;5.50;97.50;;;;;;5064981;28;20112;-92
2021/01/18 06:48:55;;;;;;;5.80;1.70;;;5.50;97.50;;;;;;5044295;28;20017;-92
2021/01/18 06:51:24;;;;;;;10.52;1.52;;;5.60;97.40;;;;;;5045282;28;20055;-92
2021/01/18 06:53:52;;;;;;;9.15;1.30;;;5.60;97.50;;;;;;5045623;28;20075;-91
2021/01/18 06:56:21;;;;;;;15.95;5.05;;;5.60;97.40;;;;;;5047400;28;20014;-92
2021/01/18 06:59:22;;;;;;;9.45;2.53;;;5.70;97.50;;;;;;5048255;28;20371;-91
2021/01/18 07:01:58;;;;;;;6.93;1.73;;;5.70;97.60;;;;;;5042628;28;20041;-93
2021/01/18 07:04:31;;;;;;;3.75;1.20;;;5.70;97.60;;;;;;5056008;28;20024;-92
2021/01/18 07:07:07;;;;;;;7.25;1.50;;;5.70;97.80;;;;;;5040158;28;20029;-93
2021/01/18 07:09:36;;;;;;;9.50;1.70;;;5.70;97.90;;;;;;5047523;28;20512;-94
2021/01/18 07:12:04;;;;;;;7.53;1.70;;;5.70;98.20;;;;;;5048884;28;20052;-92
2021/01/18 07:14:31;;;;;;;4.78;1.50;;;5.70;98.40;;;;;;5056008;28;20094;-93
2021/01/18 07:17:10;;;;;;;8.95;1.60;;;5.70;98.50;;;;;;5039563;28;20033;-91
2021/01/18 07:19:37;;;;;;;8.38;2.15;;;5.70;98.50;;;;;;5039103;28;20493;-93
2021/01/18 07:22:22;;;;;;;4.85;1.55;;;5.70;98.60;;;;;;5055013;28;20056;-92
2021/01/18 07:24:58;;;;;;;7.95;1.98;;;5.70;98.60;;;;;;5053299;28;20116;-92
2021/01/18 07:27:25;;;;;;;11.27;2.10;;;5.80;98.50;;;;;;5040626;28;20459;-91
2021/01/18 07:29:51;;;;;;;5.70;1.95;;;5.70;98.30;;;;;;5070961;28;20033;-93
2021/01/18 07:32:20;;;;;;;5.80;2.00;;;5.70;98.50;;;;;;5064726;28;20026;-92
2021/01/18 07:34:46;;;;;;;8.43;2.17;;;5.60;98.30;;;;;;5049934;28;20020;-93
2021/01/18 07:37:12;;;;;;;5.45;1.90;;;5.60;98.50;;;;;;5046033;28;20029;-94
2021/01/18 07:39:42;;;;;;;10.75;2.45;;;5.60;98.40;;;;;;5041376;28;20045;-91
2021/01/18 07:42:34;;;;;;;8.38;2.72;;;5.60;98.50;;;;;;5042518;28;20033;-96
2021/01/18 07:45:12;;;;;;;5.65;2.20;;;5.60;98.40;;;;;;5047030;28;20017;-89
2021/01/18 07:47:56;;;;;;;9.30;3.28;;;5.50;98.50;;;;;;5045390;28;20032;-85
2021/01/18 07:50:28;;;;;;;12.30;2.63;;;5.40;98.50;;;;;;5042213;28;20017;-87
2021/01/18 07:53:03;;;;;;;7.47;2.50;;;5.40;98.40;;;;;;5048918;28;20389;-94
2021/01/18 07:55:29;;;;;;;8.48;2.67;;;5.40;98.50;;;;;;5052960;28;20382;-96
2021/01/18 07:58:10;;;;;;;;;;;5.30;98.50;;;;;;5057303;28;20080;-90
2021/01/18 08:00:36;;;;;;;6.05;2.25;;;5.30;98.50;;;;;;5055474;28;19995;-91
2021/01/18 08:03:08;;;;;;;8.45;2.20;;;5.30;98.30;;;;;;5051540;28;20103;-92
2021/01/18 08:05:36;;;;;;;9.60;1.83;;;5.30;98.20;;;;;;5050238;28;20040;-93
2021/01/18 08:08:02;;;;;;;7.25;2.30;;;5.30;98.10;;;;;;5052183;28;20080;-93
2021/01/18 08:10:46;;;;;;;;;;;5.30;98.10;;;;;;5057552;28;20024;-92
2021/01/18 08:13:27;;;;;;;14.00;2.35;;;5.20;98.10;;;;;;5053451;28;19950;-94
2021/01/18 08:15:54;;;;;;;6.30;2.55;;;5.30;98.30;;;;;;5041910;28;20434;-93
2021/01/18 08:18:29;;;;;;;11.52;2.53;;;5.30;98.20;;;;;;5041576;28;20082;-93
2021/01/18 08:20:54;;;;;;;6.55;2.58;;;5.40;98.00;;;;;;5054283;28;20481;-92
2021/01/18 08:23:42;;;;;;;8.27;2.53;;;5.40;98.00;;;;;;5047597;28;20108;-94
2021/01/18 08:26:09;;;;;;;9.35;3.05;;;5.40;97.90;;;;;;5068500;28;20002;-93
2021/01/18 08:28:35;;;;;;;7.28;2.13;;;5.50;98.10;;;;;;5056946;28;20124;-92
2021/01/18 08:31:02;;;;;;;4.22;2.97;;;5.50;98.00;;;;;;5040561;28;20052;-93
2021/01/18 08:33:28;;;;;;;7.38;2.80;;;5.50;98.10;;;;;;5039418;28;20028;-93
2021/01/18 08:35:57;;;;;;;12.20;2.97;;;5.50;98.20;;;;;;5042785;28;20096;-93
2021/01/18 08:38:28;;;;;;;10.27;2.92;;;5.50;98.60;;;;;;5058689;28;20033;-93
2021/01/18 08:41:02;;;;;;;7.57;3.47;;;5.40;98.30;;;;;;5058181;28;20024;-92
2021/01/18 08:43:52;;;;;;;9.10;3.33;;;5.40;98.30;;;;;;5043562;28;20014;-93
2021/01/18 08:46:39;;;;;;;9.95;3.35;;;5.40;98.30;;;;;;5045601;28;20033;-94
2021/01/18 08:49:28;;;;;;;11.57;3.38;;;5.40;98.50;;;;;;5050651;28;20419;-93
2021/01/18 08:51:56;;;;;;;9.60;3.13;;;5.30;98.50;;;;;;5048217;28;20496;-92
2021/01/18 08:54:31;;;;;;;6.93;3.15;;;5.30;98.50;;;;;;5049802;28;20437;-94
2021/01/18 08:57:19;;;;;;;10.95;3.25;;;5.40;98.50;;;;;;5046066;28;20020;-91
2021/01/18 08:59:46;;;;;;;10.85;2.55;;;5.50;98.50;;;;;;5044195;28;20154;-91
2021/01/18 09:02:18;;;;;;;8.90;2.92;;;5.60;98.10;;;;;;5042906;28;20036;-92
2021/01/18 09:04:44;;;;;;;9.95;3.30;;;5.60;97.80;;;;;;5038452;28;20049;-91
2021/01/18 09:07:13;;;;;;;10.73;2.97;;;5.60;97.70;;;;;;5044943;28;20017;-93
2021/01/18 09:09:39;;;;;;;6.55;2.28;;;5.60;97.80;;;;;;5046883;28;20029;-92
2021/01/18 09:12:09;;;;;;;8.70;2.85;;;5.60;97.50;;;;;;5043636;28;20459;-92
2021/01/18 09:14:35;;;;;;;5.30;3.08;;;5.60;97.60;;;;;;5051238;28;20025;-92
2021/01/18 09:17:09;;;;;;;3.00;2.60;;;5.50;97.80;;;;;;5042315;28;20028;-92
2021/01/18 09:19:53;;;;;;;6.80;2.40;;;5.60;97.90;;;;;;5043102;28;20033;-93
2021/01/18 09:22:23;;;;;;;9.90;3.30;;;5.70;97.80;;;;;;5054260;28;20478;-93
2021/01/18 09:24:49;;;;;;;6.78;2.40;;;5.70;97.80;;;;;;5041065;28;20036;-92
2021/01/18 09:27:16;;;;;;;5.72;2.63;;;5.80;97.50;;;;;;5054177;28;20013;-92
2021/01/18 09:29:42;;;;;;;7.60;2.47;;;5.90;97.40;;;;;;5053572;28;20017;-91
2021/01/18 09:32:08;;;;;;;7.05;2.78;;;6.00;97.20;;;;;;5070548;28;20493;-91
2021/01/18 09:34:34;;;;;;;10.95;2.33;;;6.10;97.20;;;;;;5073411;28;20075;-92
2021/01/18 09:37:05;;;;;;;7.35;2.33;;;6.20;96.80;;;;;;5051651;28;20033;-92
2021/01/18 09:39:30;;;;;;;6.50;2.50;;;6.30;96.60;;;;;;5047290;28;20022;-91
2021/01/18 09:41:57;;;;;;;10.30;3.38;;;6.40;96.70;;;;;;5042323;28;20108;-91
2021/01/18 09:44:23;;;;;;;;;;;6.50;96.60;;;;;;5049537;28;20057;-92
2021/01/18 09:46:49;;;;;;;9.75;2.60;;;6.50;96.20;;;;;;5046286;28;19917;-92
2021/01/18 09:49:25;;;;;;;6.35;2.75;;;6.60;96.20;;;;;;5050713;28;20017;-91
2021/01/18 09:51:51;;;;;;;7.55;2.95;;;6.50;96.30;;;;;;5052205;28;20054;-92
2021/01/18 09:54:17;;;;;;;8.77;3.00;;;6.50;96.00;;;;;;5043401;28;20016;-92
2021/01/18 09:56:44;;;;;;;8.30;2.75;;;6.50;96.50;;;;;;5043527;28;20033;-92
2021/01/18 09:59:14;;;;;;;8.65;2.40;;;6.50;95.90;;;;;;5052927;28;20037;-92
2021/01/18 10:01:42;;;;;;;10.65;2.22;;;6.50;95.60;;;;;;5051497;28;20466;-92
2021/01/18 10:04:20;;;;;;;4.85;1.70;;;6.50;95.60;;;;;;5051354;28;20056;-91
2021/01/18 10:06:49;;;;;;;6.60;1.52;;;6.60;95.30;;;;;;5052245;28;20089;-91
2021/01/18 10:09:20;;;;;;;4.97;1.70;;;6.60;94.80;;;;;;5052536;28;20104;-92
2021/01/18 10:11:50;;;;;;;6.78;1.73;;;6.60;95.10;;;;;;5053338;28;20348;-93
2021/01/18 10:14:23;;;;;;;8.20;1.45;;;6.70;95.50;;;;;;5068368;28;20123;-92
2021/01/18 10:17:09;;;;;;;3.95;1.50;;;6.70;95.50;;;;;;5046996;28;20490;-93
2021/01/18 10:19:39;;;;;;;7.45;1.60;;;6.70;94.50;;;;;;5053447;28;20108;-94
2021/01/18 10:22:14;;;;;;;6.78;1.30;;;6.80;94.80;;;;;;5051108;28;20028;-93
2021/01/18 10:24:39;;;;;;;6.57;1.20;;;6.70;95.00;;;;;;5050404;28;20028;-93
2021/01/18 10:27:10;;;;;;;8.88;1.25;;;6.70;95.10;;;;;;5043241;28;20022;-93
2021/01/18 10:29:38;;;;;;;14.00;1.40;;;6.80;95.10;;;;;;5042654;28;20041;-93
2021/01/18 10:32:04;;;;;;;8.43;1.33;;;6.80;95.00;;;;;;5068413;28;20021;-92
2021/01/18 10:34:33;;;;;;;8.02;2.03;;;6.80;95.20;;;;;;5068719;28;20017;-94
2021/01/18 10:37:09;;;;;;;7.75;2.00;;;6.80;94.60;;;;;;5051593;28;20036;-92
2021/01/18 10:39:37;;;;;;;6.15;1.30;;;6.90;94.50;;;;;;5051520;28;20497;-93
2021/01/18 10:42:05;;;;;;;8.45;2.15;;;7.00;94.50;;;;;;5050991;28;20025;-92
2021/01/18 10:44:32;;;;;;;10.68;1.75;;;7.00;94.00;;;;;;5049513;28;20032;-92
2021/01/18 10:46:58;;;;;;;8.48;1.58;;;7.10;94.50;;;;;;5042756;28;20017;-93
2021/01/18 10:49:34;;;;;;;9.85;3.13;;;7.20;94.20;;;;;;5047318;28;20008;-93
2021/01/18 10:52:14;;;;;;;7.38;2.20;;;7.20;94.00;;;;;;5054280;28;20026;-93
2021/01/18 10:54:39;;;;;;;10.63;2.05;;;7.30;93.80;;;;;;5047283;28;20017;-92
2021/01/18 10:57:20;;;;;;;7.05;1.30;;;7.30;93.20;;;;;;5044251;28;20022;-93
2021/01/18 10:59:45;;;;;;;9.63;2.08;;;7.40;93.10;;;;;;5033954;28;20158;-93
2021/01/18 11:02:14;;;;;;;1.88;1.42;;;7.40;93.40;;;;;;5047529;28;20161;-93
2021/01/18 11:04:48;;;;;;;5.80;1.50;;;7.40;93.00;;;;;;5048828;28;20101;-93
2021/01/18 11:07:14;;;;;;;11.52;2.15;;;7.40;93.10;;;;;;5044060;28;20101;-91
2021/01/18 11:09:40;;;;;;;7.22;1.70;;;7.40;92.90;;;;;;5051584;28;20040;-93
2021/01/18 11:12:07;;;;;;;7.57;2.00;;;7.30;92.50;;;;;;5041841;28;20036;-94
2021/01/18 11:14:34;;;;;;;3.95;1.40;;;7.30;93.20;;;;;;5050904;28;20017;-93
2021/01/18 11:17:01;;;;;;;10.23;2.70;;;7.30;93.10;;;;;;5055268;28;20116;-91
2021/01/18 11:19:27;;;;;;;14.98;4.25;;;7.40;93.20;;;;;;5049838;28;20025;-92
2021/01/18 11:21:53;;;;;;;9.80;1.85;;;7.40;92.90;;;;;;5054282;28;20112;-91
2021/01/18 11:24:19;;;;;;;8.90;1.45;;;7.50;92.40;;;;;;5068871;28;20036;-93
2021/01/18 11:26:49;;;;;;;7.93;2.28;;;7.50;92.50;;;;;;5073147;28;20029;-91
2021/01/18 11:29:15;;;;;;;9.55;2.50;;;7.50;92.90;;;;;;5069010;28;20532;-92
2021/01/18 11:31:42;;;;;;;8.82;1.83;;;7.50;92.20;;;;;;5075198;28;20037;-93
2021/01/18 11:34:08;;;;;;;9.00;1.80;;;7.50;92.40;;;;;;5073710;28;20029;-92
2021/01/18 11:36:33;;;;;;;6.53;1.27;;;7.50;92.40;;;;;;5056299;28;20034;-93
2021/01/18 11:38:59;;;;;;;7.90;1.95;;;7.40;92.30;;;;;;5061232;28;20049;-93
2021/01/18 11:41:25;;;;;;;9.48;1.70;;;7.40;92.70;;;;;;5052961;28;20025;-93
2021/01/18 11:43:50;;;;;;;5.93;1.70;;;7.40;92.60;;;;;;5056103;28;20126;-91
2021/01/18 11:46:16;;;;;;;11.93;1.92;;;7.40;92.90;;;;;;5060005;28;20024;-93
2021/01/18 11:48:43;;;;;;;;;;;7.40;92.90;;;;;;5044918;28;20473;-92
2021/01/18 11:51:09;;;;;;;5.13;1.77;;;7.50;92.70;;;;;;5053764;28;19889;-93
2021/01/18 11:53:34;;;;;;;9.63;1.60;;;7.50;92.60;;;;;;5058777;28;20589;-92
2021/01/18 11:56:00;;;;;;;6.60;1.90;;;7.50;92.20;;;;;;5062580;28;20010;-91
2021/01/18 11:58:26;;;;;;;7.75;1.85;;;7.50;92.60;;;;;;5065013;28;20041;-92
2021/01/18 12:00:52;;;;;;;6.22;1.70;;;7.50;92.00;;;;;;5066242;28;20040;-93
2021/01/18 12:03:17;;;;;;;7.28;2.05;;;7.50;92.00;;;;;;5066289;28;20017;-92
2021/01/18 12:05:43;;;;;;;5.07;1.88;;;7.50;92.10;;;;;;5064201;28;20025;-92
2021/01/18 12:08:09;;;;;;;5.90;2.38;;;7.50;92.10;;;;;;5066363;28;20044;-92
2021/01/18 12:10:35;;;;;;;10.98;2.20;;;7.50;91.80;;;;;;5062664;28;20077;-93
2021/01/18 12:13:03;;;;;;;15.10;2.28;;;7.60;91.80;;;;;;5051938;28;20029;-93
2021/01/18 12:15:29;;;;;;;14.73;2.78;;;7.60;91.50;;;;;;5047164;28;20026;-92
2021/01/18 12:17:55;;;;;;;10.95;2.05;;;7.60;91.70;;;;;;5058590;28;20052;-93
2021/01/18 12:20:21;;;;;;;6.68;1.73;;;7.60;91.50;;;;;;5060720;28;20466;-93
2021/01/18 12:22:51;;;;;;;12.75;2.13;;;7.50;91.20;;;;;;5066654;28;20053;-93
2021/01/18 12:25:16;;;;;;;7.78;2.25;;;7.50;91.00;;;;;;5071822;28;20001;-92
2021/01/18 12:27:48;;;;;;;33.47;2.60;;;7.50;91.30;;;;;;5066538;28;20021;-92
2021/01/18 12:30:14;;;;;;;6.63;2.30;;;7.40;91.70;;;;;;5062329;28;20031;-91
2021/01/18 12:32:41;;;;;;;10.43;2.08;;;7.40;91.70;;;;;;5063855;28;20025;-92
2021/01/18 12:35:06;;;;;;;12.88;2.10;;;7.50;91.30;;;;;;5072357;28;20021;-91
2021/01/18 12:37:32;;;;;;;13.13;2.05;;;7.50;91.10;;;;;;5075508;28;20056;-91
2021/01/18 12:39:58;;;;;;;12.27;2.00;;;7.50;91.30;;;;;;5076239;28;20057;-90
2021/01/18 12:42:24;;;;;;;12.48;2.22;;;7.50;91.70;;;;;;5075004;28;20040;-91
2021/01/18 12:44:49;;;;;;;13.20;1.95;;;7.50;91.90;;;;;;5077577;28;20032;-92
2021/01/18 12:47:15;;;;;;;9.70;1.70;;;7.50;91.70;;;;;;5061007;28;20014;-91
2021/01/18 12:49:41;;;;;;;12.57;1.88;;;7.50;92.00;;;;;;5060927;28;20051;-92
2021/01/18 12:52:07;;;;;;;6.72;2.10;;;7.50;91.70;;;;;;5064481;28;20032;-91
2021/01/18 12:54:36;;;;;;;13.70;2.90;;;7.50;91.90;;;;;;5068537;28;20039;-92
2021/01/18 12:57:02;;;;;;;7.75;1.98;;;7.60;92.00;;;;;;5067734;28;20036;-91
2021/01/18 12:59:31;;;;;;;10.85;2.20;;;7.60;91.30;;;;;;5075670;28;20029;-92
2021/01/18 13:01:56;;;;;;;18.33;2.97;;;7.60;91.80;;;;;;5073920;28;20013;-92
2021/01/18 13:04:22;;;;;;;10.30;2.17;;;7.60;91.80;;;;;;5077423;28;20029;-92
2021/01/18 13:06:50;;;;;;;12.35;1.90;;;7.60;91.50;;;;;;5071721;28;20017;-91
2021/01/18 13:09:20;;;;;;;13.95;2.10;;;7.60;91.50;;;;;;5070395;28;20021;-90
2021/01/18 13:11:51;;;;;;;12.32;2.35;;;7.60;91.80;;;;;;5067797;28;20033;-92